메인 페이지
METAR-TAF:

METAR-TAF

공항 :

콘스탄차, 루마니아

위도: 44-20N, 경도: 028-26E, 고도: 97m

현재 날씨관측

예보는 27분 전, 15:30시(UTC)에 발표되었습니다.
여러 방향의 바람 2kt
온도 18°C
습도 52%
기압 1021 hPa
시정 10km 이상
1500m 미만 상공 구름 및 적란운 없음

METAR: LRCK 221530Z VRB02KT CAVOK 18/08 Q1021 NOSIG

시각: 18:57 (15:57 UTC)

예보

예보는 4 시간 57분 전, 11:00시(UTC)에 발표되었습니다.
예보 대상 시간: 22일 12시부터 23일 12시까지 (UTC)
10kt
시정 10km 이상
1500m 미만 상공 구름 및 적란운 없음
전환 중
22일 17시부터 22일 19시까지 (UTC)
여러 방향의 바람 4kt
일시적
23일 00시부터 23일 06시까지 (UTC)
시정: 5000m
박무
전환 중
23일 07시부터 23일 09시까지 (UTC)
서남서10kt

TAF: LRCK 221100Z 2212/2312 26010KT CAVOK BECMG 2217/2219 VRB04KT TEMPO 2300/2306 5000 BR BECMG 2307/2309 25010KT

4,000개 이상의 공항 관측 자료 및 예보 (METAR 및 TAF 보고).

지도상에서 검색 가능한 기상관측소가 노란 점과 빨간 점으로 표시되어 있습니다.

기상관측소 명을 보려면 표시 위로 마우스를 이동하세요.

날씨 관측과 예보를 보려면 클릭하세요.

지도 변경 : 확대하려면 엑스 표시가 있는 녹색 버튼, 축소하려면 빼기 표시가 있는 녹색 버튼, 다음 페이지의 지도를 보려면 녹색 화살표를 클릭하세요.


METAR-TAF: